createdAt,value
2022-11-28T00:00:52.384Z,6.32
2022-11-28T00:04:06.821Z,6.86
2022-11-28T00:07:14.349Z,7.13
2022-11-28T00:10:19.958Z,7.44
2022-11-28T00:13:25.481Z,7.61
2022-11-28T00:16:31.027Z,7.73
2022-11-28T00:19:36.354Z,7.77
2022-11-28T00:22:42.644Z,7.76
2022-11-28T00:25:47.972Z,7.74
2022-11-28T00:28:53.627Z,7.80
2022-11-28T00:31:59.145Z,7.83
2022-11-28T00:35:04.699Z,7.86
2022-11-28T00:38:11.383Z,7.82
2022-11-28T00:41:17.794Z,7.79
2022-11-28T00:44:23.250Z,7.71
2022-11-28T00:47:28.725Z,7.68
2022-11-28T00:50:34.108Z,7.65
2022-11-28T00:53:40.498Z,6.95
2022-11-28T00:56:45.950Z,5.42
2022-11-28T00:59:51.255Z,5.05
2022-11-28T01:02:56.731Z,5.74
2022-11-28T01:06:02.188Z,6.25
2022-11-28T01:09:08.328Z,6.48
2022-11-28T01:12:15.075Z,6.66
2022-11-28T01:15:20.542Z,6.80
2022-11-28T01:18:25.806Z,6.96
2022-11-28T01:21:32.806Z,7.03
2022-11-28T01:24:38.300Z,7.04
2022-11-28T01:27:43.632Z,7.19
2022-11-28T01:30:49.102Z,7.29
2022-11-28T01:33:54.551Z,7.44
2022-11-28T01:37:01.014Z,7.51
2022-11-28T01:40:07.365Z,7.60
2022-11-28T01:43:12.737Z,7.65
2022-11-28T01:46:18.530Z,7.70
2022-11-28T01:49:25.702Z,6.78
2022-11-28T01:52:31.229Z,5.30
2022-11-28T01:55:39.066Z,4.19
2022-11-28T01:58:46.732Z,3.36
2022-11-28T02:01:53.483Z,2.70
2022-11-28T02:04:59.352Z,2.32
2022-11-28T02:08:04.862Z,3.37
2022-11-28T02:11:21.785Z,4.63
2022-11-28T02:14:35.394Z,5.46
2022-11-28T02:17:48.969Z,5.92
2022-11-28T02:21:05.079Z,6.12
2022-11-28T02:24:29.763Z,6.32
2022-11-28T02:27:42.282Z,6.68
2022-11-28T02:30:53.520Z,6.80
2022-11-28T02:34:00.909Z,6.96
2022-11-28T02:37:08.677Z,7.01
2022-11-28T02:40:18.163Z,7.15
2022-11-28T02:43:25.129Z,7.28
2022-11-28T02:46:35.186Z,7.39
2022-11-28T02:49:45.456Z,6.55
2022-11-28T02:52:52.488Z,4.93
2022-11-28T02:55:58.363Z,3.84
2022-11-28T02:59:03.721Z,3.04
2022-11-28T03:02:14.792Z,2.40
2022-11-28T03:05:22.107Z,2.34
2022-11-28T03:08:46.151Z,3.56
2022-11-28T03:11:59.659Z,4.64
2022-11-28T03:15:07.451Z,5.00
2022-11-28T03:18:18.894Z,5.63
2022-11-28T03:21:27.073Z,6.16
2022-11-28T03:24:35.965Z,6.53
2022-11-28T03:27:44.895Z,6.79
2022-11-28T03:30:51.926Z,6.99
2022-11-28T03:33:59.433Z,7.11
2022-11-28T03:37:07.312Z,6.95
2022-11-28T03:40:16.956Z,5.60
2022-11-28T03:43:26.766Z,4.17
2022-11-28T03:46:36.168Z,3.24
2022-11-28T03:49:43.505Z,3.67
2022-11-28T03:52:50.570Z,4.57
2022-11-28T03:56:01.579Z,5.15
2022-11-28T03:59:10.785Z,5.51
2022-11-28T04:02:19.878Z,5.98
2022-11-28T04:05:29.135Z,6.27
2022-11-28T04:08:38.313Z,6.45
2022-11-28T04:11:46.189Z,6.61
2022-11-28T04:14:54.793Z,6.76
2022-11-28T04:18:02.343Z,6.93
2022-11-28T04:21:11.291Z,5.96
2022-11-28T04:24:19.056Z,4.46
2022-11-28T04:27:28.698Z,3.85
2022-11-28T04:30:36.823Z,4.56
2022-11-28T04:33:44.326Z,5.38
2022-11-28T04:36:50.664Z,5.79
2022-11-28T04:39:57.253Z,6.09
2022-11-28T04:43:03.689Z,6.28
2022-11-28T04:46:11.911Z,6.56
2022-11-28T04:49:18.755Z,6.76
2022-11-28T04:52:26.692Z,6.80
2022-11-28T04:55:36.255Z,5.86
2022-11-28T04:58:43.555Z,4.34
2022-11-28T05:01:49.712Z,3.22
2022-11-28T05:04:55.974Z,2.58
2022-11-28T05:08:01.352Z,3.42
2022-11-28T05:11:06.746Z,4.44
2022-11-28T05:14:12.089Z,5.21
2022-11-28T05:17:17.619Z,5.74
2022-11-28T05:20:23.060Z,6.09
2022-11-28T05:23:28.409Z,6.33
2022-11-28T05:26:35.399Z,6.49
2022-11-28T05:29:46.872Z,6.72
2022-11-28T05:32:56.928Z,6.64
2022-11-28T05:36:11.250Z,5.36
2022-11-28T05:39:19.448Z,3.81
2022-11-28T05:42:25.954Z,3.54
2022-11-28T05:45:34.008Z,4.43
2022-11-28T05:48:39.538Z,5.12
2022-11-28T05:51:44.927Z,5.58
2022-11-28T05:54:50.285Z,5.85
2022-11-28T05:57:55.721Z,5.91
2022-11-28T06:01:03.952Z,5.91
2022-11-28T06:04:09.386Z,5.98
2022-11-28T06:07:14.880Z,5.87
2022-11-28T06:10:22.577Z,4.67
2022-11-28T06:13:27.992Z,3.40
2022-11-28T06:16:33.384Z,2.54
2022-11-28T06:19:39.012Z,2.88
2022-11-28T06:22:44.366Z,3.77
2022-11-28T06:25:49.633Z,4.44
2022-11-28T06:28:56.506Z,4.97
2022-11-28T06:32:01.865Z,5.27
2022-11-28T06:35:08.039Z,5.49
2022-11-28T06:38:14.538Z,5.73
2022-11-28T06:41:20.766Z,5.82
2022-11-28T06:44:26.249Z,5.48
2022-11-28T06:47:31.823Z,4.07
2022-11-28T06:50:37.138Z,3.96
2022-11-28T06:53:45.726Z,4.76
2022-11-28T06:56:51.295Z,5.30
2022-11-28T06:59:56.774Z,5.46
2022-11-28T07:03:02.063Z,5.80
2022-11-28T07:06:07.903Z,6.09
2022-11-28T07:09:13.576Z,6.29
2022-11-28T07:12:18.978Z,5.84
2022-11-28T07:15:24.430Z,4.51
2022-11-28T07:18:30.070Z,4.14
2022-11-28T07:21:35.666Z,4.94
2022-11-28T07:24:41.319Z,5.56
2022-11-28T07:27:46.703Z,6.00
2022-11-28T07:30:58.854Z,6.43
2022-11-28T07:34:04.431Z,6.72
2022-11-28T07:37:12.062Z,6.96
2022-11-28T07:40:18.585Z,6.77
2022-11-28T07:43:24.618Z,5.41
2022-11-28T07:46:32.599Z,4.58
2022-11-28T07:49:38.054Z,5.34
2022-11-28T07:52:43.332Z,6.17
2022-11-28T07:55:48.742Z,6.52
2022-11-28T07:58:54.474Z,6.86
2022-11-28T08:02:01.179Z,7.02
2022-11-28T08:05:07.211Z,7.14
2022-11-28T08:08:12.626Z,6.96
2022-11-28T08:11:19.094Z,5.66
2022-11-28T08:14:24.605Z,5.49
2022-11-28T08:17:38.412Z,6.41
2022-11-28T08:20:43.729Z,6.94
2022-11-28T08:23:48.918Z,7.30
2022-11-28T08:26:55.730Z,7.40
2022-11-28T08:30:01.042Z,7.59
2022-11-28T08:33:07.588Z,6.96
2022-11-28T08:36:14.468Z,5.76
2022-11-28T08:39:24.860Z,6.06
2022-11-28T08:42:30.596Z,7.05
2022-11-28T08:45:39.756Z,7.40
2022-11-28T08:48:46.109Z,7.56
2022-11-28T08:51:52.854Z,7.86
2022-11-28T08:54:58.121Z,7.55
2022-11-28T08:58:03.407Z,6.34
2022-11-28T09:01:15.875Z,6.32
2022-11-28T09:04:24.995Z,7.13
2022-11-28T09:07:30.734Z,7.73
2022-11-28T09:10:37.956Z,8.05
2022-11-28T09:13:43.580Z,8.43
2022-11-28T09:16:50.590Z,7.57
2022-11-28T09:19:55.898Z,6.48
2022-11-28T09:23:01.329Z,6.88
2022-11-28T09:26:10.381Z,7.59
2022-11-28T09:29:15.550Z,8.07
2022-11-28T09:32:23.660Z,8.50
2022-11-28T09:35:28.968Z,8.12
2022-11-28T09:38:34.563Z,6.93
2022-11-28T09:41:51.803Z,7.19
2022-11-28T09:44:59.663Z,7.89
2022-11-28T09:48:21.040Z,8.43
2022-11-28T09:51:29.390Z,8.67
2022-11-28T09:54:43.033Z,8.32
2022-11-28T09:57:49.904Z,7.14
2022-11-28T10:00:58.957Z,6.89
2022-11-28T10:04:07.678Z,7.61
2022-11-28T10:07:16.786Z,8.11
2022-11-28T10:10:32.624Z,8.37
2022-11-28T10:14:06.770Z,8.71
2022-11-28T10:17:17.464Z,9.00
2022-11-28T10:20:24.449Z,8.08
2022-11-28T10:23:32.211Z,7.20
2022-11-28T10:26:39.801Z,7.73
2022-11-28T10:29:50.222Z,8.45
2022-11-28T10:33:00.280Z,8.97
2022-11-28T10:36:05.986Z,9.26
2022-11-28T10:39:12.947Z,9.32
2022-11-28T10:42:21.696Z,8.84
2022-11-28T10:45:30.332Z,7.66
2022-11-28T10:48:41.478Z,7.78
2022-11-28T10:51:49.923Z,8.34
2022-11-28T10:55:05.329Z,8.73
2022-11-28T10:58:15.212Z,9.20
2022-11-28T11:01:20.954Z,9.44
2022-11-28T11:04:27.845Z,9.42
2022-11-28T11:07:34.423Z,8.27
2022-11-28T11:10:42.670Z,8.07
2022-11-28T11:14:02.046Z,8.83
2022-11-28T11:17:07.629Z,9.32
2022-11-28T11:20:31.118Z,9.54
2022-11-28T11:23:39.562Z,9.55
2022-11-28T11:26:47.125Z,8.51
2022-11-28T11:29:52.499Z,8.05
2022-11-28T11:32:59.942Z,8.78
2022-11-28T11:36:07.279Z,9.57
2022-11-28T11:39:20.856Z,10.06
2022-11-28T11:42:27.182Z,9.83
2022-11-28T11:45:35.342Z,8.65
2022-11-28T11:48:41.780Z,8.84
2022-11-28T11:51:56.649Z,9.66
2022-11-28T11:55:04.885Z,10.27
2022-11-28T11:58:14.110Z,10.36
2022-11-28T12:01:21.619Z,9.48
2022-11-28T12:04:44.992Z,8.85
2022-11-28T12:07:56.628Z,9.61
2022-11-28T12:11:09.523Z,10.31
2022-11-28T12:14:25.617Z,10.55
2022-11-28T12:17:51.483Z,9.57
2022-11-28T12:21:06.892Z,8.87
2022-11-28T12:24:14.277Z,9.73
2022-11-28T12:27:27.507Z,10.27
2022-11-28T12:30:43.457Z,10.30
2022-11-28T12:33:53.718Z,9.09
2022-11-28T12:37:03.812Z,8.26
2022-11-28T12:40:14.564Z,9.02
2022-11-28T12:43:25.202Z,9.80
2022-11-28T12:46:35.329Z,9.91
2022-11-28T12:49:47.823Z,8.92
2022-11-28T12:52:58.144Z,8.82
2022-11-28T12:56:07.943Z,9.77
2022-11-28T12:59:19.920Z,10.09
2022-11-28T13:02:35.128Z,9.25
2022-11-28T13:05:52.549Z,8.26
2022-11-28T13:09:03.480Z,8.57
2022-11-28T13:12:22.395Z,9.51
2022-11-28T13:15:38.535Z,10.10
2022-11-28T13:18:49.918Z,10.00
2022-11-28T13:21:58.813Z,8.97
2022-11-28T13:25:10.875Z,9.01
2022-11-28T13:28:20.540Z,9.84
2022-11-28T13:31:29.228Z,10.01
2022-11-28T13:34:35.607Z,8.99
2022-11-28T13:41:35.171Z,8.66
2022-11-28T13:44:43.625Z,9.50
2022-11-28T13:47:49.464Z,9.86
2022-11-28T13:51:06.655Z,8.98
2022-11-28T13:54:45.440Z,8.12
2022-11-28T13:57:53.424Z,8.88
2022-11-28T14:01:10.086Z,9.59
2022-11-28T14:04:16.647Z,9.14
2022-11-28T14:07:26.730Z,8.09
2022-11-28T14:10:36.365Z,7.69
2022-11-28T14:13:52.494Z,8.47
2022-11-28T14:17:10.424Z,9.10
2022-11-28T14:20:24.560Z,8.31
2022-11-28T14:23:34.991Z,7.22
2022-11-28T14:26:43.159Z,7.18
2022-11-28T14:29:50.428Z,8.08
2022-11-28T14:32:59.487Z,8.29
2022-11-28T14:36:24.754Z,7.13
2022-11-28T14:39:35.367Z,6.31
2022-11-28T14:46:32.148Z,7.68
2022-11-28T14:49:40.473Z,7.38
2022-11-28T14:52:48.002Z,6.30
2022-11-28T14:55:53.599Z,5.94
2022-11-28T14:59:02.291Z,6.71
2022-11-28T15:02:19.326Z,7.38
2022-11-28T15:05:30.395Z,6.89
2022-11-28T15:08:50.159Z,5.78
2022-11-28T15:12:11.553Z,5.53
2022-11-28T15:15:19.233Z,6.43
2022-11-28T15:18:26.077Z,6.99
2022-11-28T15:21:33.329Z,7.08
2022-11-28T15:24:39.456Z,6.02
2022-11-28T15:27:46.262Z,5.44
2022-11-28T15:30:53.828Z,6.22
2022-11-28T15:34:00.361Z,6.89
2022-11-28T15:37:16.961Z,7.10
2022-11-28T15:40:27.557Z,6.21
2022-11-28T15:43:32.992Z,5.18
2022-11-28T15:46:38.565Z,5.57
2022-11-28T15:49:44.297Z,6.25
2022-11-28T15:52:56.763Z,6.75
2022-11-28T15:56:12.741Z,7.16
2022-11-28T15:59:18.300Z,6.96
2022-11-28T16:02:27.650Z,5.83
2022-11-28T16:05:33.542Z,5.07
2022-11-28T16:08:40.595Z,5.83
2022-11-28T16:11:47.375Z,6.62
2022-11-28T16:14:58.706Z,7.06
2022-11-28T16:18:04.148Z,7.44
2022-11-28T16:21:12.559Z,7.64
2022-11-28T16:24:25.237Z,7.09
2022-11-28T16:27:34.856Z,5.71
2022-11-28T16:30:43.551Z,5.30
2022-11-28T16:33:50.364Z,6.17
2022-11-28T16:36:57.086Z,6.84
2022-11-28T16:40:04.729Z,7.35
2022-11-28T16:43:19.963Z,7.70
2022-11-28T16:46:27.189Z,7.98
2022-11-28T16:49:34.855Z,8.15
2022-11-28T16:52:45.723Z,8.25
2022-11-28T16:55:51.164Z,7.45
2022-11-28T16:59:00.115Z,6.07
2022-11-28T17:02:13.396Z,5.25
2022-11-28T17:05:20.306Z,6.00
2022-11-28T17:08:30.280Z,6.62
2022-11-28T17:11:37.325Z,6.96
2022-11-28T17:14:44.115Z,7.22
2022-11-28T17:17:49.639Z,7.40
2022-11-28T17:20:55.238Z,7.59
2022-11-28T17:24:00.903Z,7.75
2022-11-28T17:27:08.731Z,7.69
2022-11-28T17:30:21.439Z,6.76
2022-11-28T17:33:27.187Z,5.62
2022-11-28T17:36:32.775Z,5.88
2022-11-28T17:39:38.379Z,6.55
2022-11-28T17:42:43.767Z,7.07
2022-11-28T17:45:51.293Z,7.44
2022-11-28T17:48:59.178Z,7.66
2022-11-28T17:52:04.639Z,7.86
2022-11-28T17:55:10.441Z,7.97
2022-11-28T17:58:22.182Z,8.06
2022-11-28T18:01:29.920Z,8.08
2022-11-28T18:04:38.293Z,8.22
2022-11-28T18:07:43.768Z,8.30
2022-11-28T18:10:52.103Z,8.38
2022-11-28T18:13:59.006Z,8.33
2022-11-28T18:17:04.560Z,8.49
2022-11-28T18:20:11.298Z,8.41
2022-11-28T18:23:16.894Z,8.60
2022-11-28T18:26:24.050Z,8.67
2022-11-28T18:29:30.796Z,7.74
2022-11-28T18:32:36.604Z,6.73
2022-11-28T18:35:42.816Z,7.08
2022-11-28T18:38:48.314Z,7.55
2022-11-28T18:41:56.546Z,7.80
2022-11-28T18:45:02.036Z,8.09
2022-11-28T18:48:07.807Z,8.24
2022-11-28T18:51:14.555Z,8.31
2022-11-28T18:54:21.543Z,8.37
2022-11-28T18:57:31.500Z,8.49
2022-11-28T19:00:36.872Z,8.51
2022-11-28T19:03:43.224Z,8.55
2022-11-28T19:06:48.766Z,8.60
2022-11-28T19:09:54.536Z,8.65
2022-11-28T19:12:59.805Z,8.72
2022-11-28T19:16:07.586Z,8.79
2022-11-28T19:19:13.115Z,8.75
2022-11-28T19:22:18.380Z,8.67
2022-11-28T19:25:24.001Z,8.63
2022-11-28T19:28:29.831Z,8.69
2022-11-28T19:31:36.666Z,8.74
2022-11-28T19:34:42.674Z,8.86
2022-11-28T19:37:48.395Z,8.94
2022-11-28T19:40:53.878Z,8.95
2022-11-28T19:43:59.621Z,9.15
2022-11-28T19:47:07.009Z,9.04
2022-11-28T19:50:13.003Z,7.78
2022-11-28T19:53:18.673Z,6.96
2022-11-28T19:56:24.186Z,7.40
2022-11-28T19:59:31.393Z,7.70
2022-11-28T20:02:39.057Z,8.07
2022-11-28T20:05:44.677Z,8.26
2022-11-28T20:08:50.563Z,8.38
2022-11-28T20:11:56.056Z,8.63
2022-11-28T20:15:04.910Z,8.71
2022-11-28T20:18:10.422Z,8.71
2022-11-28T20:21:17.320Z,8.91
2022-11-28T20:24:23.031Z,8.97
2022-11-28T20:27:28.738Z,9.12
2022-11-28T20:30:34.114Z,8.95
2022-11-28T20:33:39.443Z,7.77
2022-11-28T20:36:45.028Z,7.00
2022-11-28T20:39:50.686Z,7.62
2022-11-28T20:42:56.177Z,8.15
2022-11-28T20:46:04.838Z,8.45
2022-11-28T20:49:11.169Z,8.61
2022-11-28T20:52:16.410Z,8.86
2022-11-28T20:55:23.139Z,8.95
2022-11-28T20:58:28.490Z,9.15
2022-11-28T21:01:35.350Z,8.41
2022-11-28T21:04:40.933Z,7.02
2022-11-28T21:07:46.293Z,6.32
2022-11-28T21:10:51.867Z,7.03
2022-11-28T21:13:57.133Z,7.66
2022-11-28T21:17:02.518Z,7.95
2022-11-28T21:20:09.620Z,8.12
2022-11-28T21:23:15.600Z,8.12
2022-11-28T21:26:27.393Z,8.25
2022-11-28T21:29:36.245Z,8.15
2022-11-28T21:32:41.722Z,7.04
2022-11-28T21:35:46.990Z,5.98
2022-11-28T21:38:52.681Z,6.23
2022-11-28T21:41:58.086Z,6.87
2022-11-28T21:45:03.680Z,7.24
2022-11-28T21:48:09.203Z,7.58
2022-11-28T21:51:17.571Z,7.69
2022-11-28T21:54:23.091Z,7.85
2022-11-28T21:57:28.529Z,8.08
2022-11-28T22:00:52.804Z,8.13
2022-11-28T22:04:03.243Z,8.26
2022-11-28T22:07:09.849Z,7.97
2022-11-28T22:10:15.197Z,6.72
2022-11-28T22:13:20.539Z,6.14
2022-11-28T22:16:27.293Z,6.83
2022-11-28T22:19:32.861Z,7.34
2022-11-28T22:22:38.454Z,7.70
2022-11-28T22:25:52.518Z,7.98
2022-11-28T22:28:58.928Z,8.17
2022-11-28T22:32:04.531Z,8.34
2022-11-28T22:35:11.061Z,8.56
2022-11-28T22:38:17.903Z,8.75
2022-11-28T22:41:28.293Z,8.70
2022-11-28T22:44:36.955Z,8.68
2022-11-28T22:47:42.418Z,8.93
2022-11-28T22:50:47.882Z,9.07
2022-11-28T22:53:55.387Z,9.06
2022-11-28T22:57:02.675Z,7.83
2022-11-28T23:00:09.815Z,6.95
2022-11-28T23:03:15.408Z,7.52
2022-11-28T23:06:23.615Z,8.29
2022-11-28T23:09:32.963Z,8.69
2022-11-28T23:12:38.600Z,8.99
2022-11-28T23:15:48.442Z,9.29
2022-11-28T23:18:58.131Z,9.32
2022-11-28T23:22:04.805Z,8.58
2022-11-28T23:25:12.578Z,7.27
2022-11-28T23:28:18.115Z,6.38
2022-11-28T23:31:26.317Z,6.82
2022-11-28T23:34:33.142Z,7.64
2022-11-28T23:37:40.430Z,8.19
2022-11-28T23:40:45.983Z,8.59
2022-11-28T23:43:51.507Z,8.77
2022-11-28T23:46:59.419Z,8.86
2022-11-28T23:50:08.388Z,8.96
2022-11-28T23:53:13.888Z,9.10
2022-11-28T23:56:20.505Z,9.13
2022-11-28T23:59:25.871Z,9.10
